createdAt,value
2022-09-07T00:00:58.878Z,73.70
2022-09-07T00:03:25.625Z,73.70
2022-09-07T00:05:52.767Z,73.20
2022-09-07T00:08:22.989Z,72.70
2022-09-07T00:10:58.105Z,73.20
2022-09-07T00:13:27.441Z,74.80
2022-09-07T00:15:54.154Z,73.80
2022-09-07T00:18:20.907Z,73.80
2022-09-07T00:20:56.944Z,76.90
2022-09-07T00:23:23.518Z,74.70
2022-09-07T00:25:53.911Z,74.80
2022-09-07T00:28:20.713Z,74.90
2022-09-07T00:30:47.285Z,75.00
2022-09-07T00:33:13.864Z,75.20
2022-09-07T00:35:41.568Z,75.70
2022-09-07T00:38:08.841Z,76.00
2022-09-07T00:40:35.617Z,76.10
2022-09-07T00:43:02.293Z,76.40
2022-09-07T00:45:29.256Z,77.10
2022-09-07T00:48:01.849Z,78.30
2022-09-07T00:50:42.939Z,77.70
2022-09-07T00:53:09.479Z,78.50
2022-09-07T00:55:37.625Z,78.80
2022-09-07T00:58:05.816Z,79.40
2022-09-07T01:00:32.805Z,79.60
2022-09-07T01:03:00.395Z,79.70
2022-09-07T01:05:38.979Z,80.10
2022-09-07T01:08:06.310Z,81.20
2022-09-07T01:10:34.352Z,82.30
2022-09-07T01:13:01.654Z,81.00
2022-09-07T01:15:46.090Z,83.30
2022-09-07T01:18:30.899Z,82.20
2022-09-07T01:21:20.725Z,82.20
2022-09-07T01:24:05.347Z,82.90
2022-09-07T01:26:53.264Z,82.60
2022-09-07T01:29:41.913Z,83.70
2022-09-07T01:32:50.437Z,84.00
2022-09-07T01:35:28.526Z,84.10
2022-09-07T01:38:09.840Z,84.50
2022-09-07T01:40:55.999Z,84.60
2022-09-07T01:43:41.416Z,84.60
2022-09-07T01:46:17.243Z,84.90
2022-09-07T01:48:46.094Z,84.70
2022-09-07T01:51:13.175Z,85.10
2022-09-07T01:53:45.333Z,85.30
2022-09-07T01:56:16.652Z,85.40
2022-09-07T01:59:14.574Z,85.50
2022-09-07T02:01:53.582Z,85.80
2022-09-07T02:04:27.231Z,86.10
2022-09-07T02:07:07.593Z,86.00
2022-09-07T02:09:49.807Z,86.50
2022-09-07T02:12:26.687Z,86.40
2022-09-07T02:14:59.381Z,86.20
2022-09-07T02:17:33.686Z,86.50
2022-09-07T02:20:13.547Z,86.60
2022-09-07T02:22:45.085Z,86.70
2022-09-07T02:25:19.781Z,86.10
2022-09-07T02:27:51.507Z,86.60
2022-09-07T02:30:18.206Z,86.90
2022-09-07T02:32:44.909Z,86.50
2022-09-07T02:35:12.051Z,87.00
2022-09-07T02:37:39.657Z,86.90
2022-09-07T02:40:07.091Z,86.90
2022-09-07T02:42:34.909Z,87.00
2022-09-07T02:45:05.450Z,87.10
2022-09-07T02:48:06.680Z,86.40
2022-09-07T02:51:10.032Z,86.20
2022-09-07T02:54:00.445Z,86.50
2022-09-07T02:56:26.972Z,86.20
2022-09-07T02:59:23.727Z,86.60
2022-09-07T03:02:12.407Z,86.60
2022-09-07T03:04:47.774Z,86.40
2022-09-07T03:07:22.800Z,85.80
2022-09-07T03:09:53.195Z,86.00
2022-09-07T03:12:19.862Z,86.50
2022-09-07T03:14:46.483Z,86.60
2022-09-07T03:17:13.689Z,86.40
2022-09-07T03:19:40.284Z,86.70
2022-09-07T03:22:07.437Z,86.70
2022-09-07T03:24:34.118Z,87.10
2022-09-07T03:27:00.741Z,87.20
2022-09-07T03:29:27.323Z,86.60
2022-09-07T03:31:53.875Z,87.10
2022-09-07T03:34:20.421Z,87.10
2022-09-07T03:36:47.012Z,87.90
2022-09-07T03:39:13.851Z,87.50
2022-09-07T03:41:40.452Z,87.40
2022-09-07T03:44:08.209Z,87.20
2022-09-07T03:46:34.881Z,87.90
2022-09-07T03:49:01.543Z,87.10
2022-09-07T03:51:28.185Z,87.40
2022-09-07T03:53:55.084Z,87.00
2022-09-07T03:56:24.617Z,87.50
2022-09-07T03:58:53.232Z,87.40
2022-09-07T04:01:25.261Z,88.50
2022-09-07T04:03:52.820Z,86.80
2022-09-07T04:06:19.692Z,87.30
2022-09-07T04:08:46.274Z,87.30
2022-09-07T04:13:42.160Z,86.90
2022-09-07T04:16:14.360Z,86.60
2022-09-07T04:18:41.596Z,86.70
2022-09-07T04:21:08.616Z,86.70
2022-09-07T04:23:38.176Z,86.60
2022-09-07T04:26:04.845Z,87.70
2022-09-07T04:28:31.631Z,89.60
2022-09-07T04:31:02.451Z,91.80
2022-09-07T04:33:32.365Z,92.10
2022-09-07T04:36:02.457Z,92.50
2022-09-07T04:38:29.376Z,92.70
2022-09-07T04:41:06.631Z,93.00
2022-09-07T04:43:33.248Z,93.20
2022-09-07T04:46:08.049Z,92.70
2022-09-07T04:48:35.016Z,91.70
2022-09-07T04:51:09.676Z,90.70
2022-09-07T04:53:37.990Z,90.50
2022-09-07T04:56:05.371Z,90.00
2022-09-07T04:58:32.600Z,89.40
2022-09-07T05:01:03.868Z,88.80
2022-09-07T05:03:32.436Z,88.30
2022-09-07T05:06:03.389Z,87.80
2022-09-07T05:08:30.117Z,87.70
2022-09-07T05:10:59.602Z,87.80
2022-09-07T05:13:26.230Z,87.60
2022-09-07T05:15:52.801Z,87.60
2022-09-07T05:18:19.496Z,87.60
2022-09-07T05:20:46.091Z,87.60
2022-09-07T05:23:12.658Z,87.50
2022-09-07T05:25:46.516Z,87.60
2022-09-07T05:28:18.617Z,87.60
2022-09-07T05:36:20.585Z,87.70
2022-09-07T05:38:47.439Z,87.80
2022-09-07T05:41:19.241Z,87.80
2022-09-07T05:46:33.042Z,87.90
2022-09-07T05:49:00.592Z,87.80
2022-09-07T05:51:27.192Z,87.80
2022-09-07T05:53:53.778Z,87.60
2022-09-07T05:56:20.333Z,87.70
2022-09-07T05:58:50.078Z,87.70
2022-09-07T06:01:16.883Z,87.90
2022-09-07T06:03:44.573Z,87.60
2022-09-07T06:06:16.823Z,87.70
2022-09-07T06:08:52.308Z,87.70
2022-09-07T06:11:24.608Z,87.70
2022-09-07T06:13:52.042Z,87.50
2022-09-07T06:18:48.453Z,87.70
2022-09-07T06:21:20.915Z,87.90
2022-09-07T06:23:48.509Z,88.00
2022-09-07T06:26:16.514Z,87.90
2022-09-07T06:28:48.714Z,88.00
2022-09-07T06:31:20.701Z,88.30
2022-09-07T06:33:48.245Z,88.20
2022-09-07T06:36:19.596Z,88.50
2022-09-07T06:38:47.023Z,88.30
2022-09-07T06:44:07.241Z,88.80
2022-09-07T06:49:20.340Z,88.80
2022-09-07T06:57:06.111Z,88.90
2022-09-07T06:59:32.667Z,89.00
2022-09-07T07:01:59.225Z,89.00
2022-09-07T07:04:25.803Z,89.20
2022-09-07T07:06:52.542Z,89.60
2022-09-07T07:09:19.223Z,91.60
2022-09-07T07:11:47.304Z,92.30
2022-09-07T07:14:15.321Z,92.80
2022-09-07T07:16:42.209Z,93.10
2022-09-07T07:19:09.368Z,93.20
2022-09-07T07:21:55.215Z,93.00
2022-09-07T07:24:23.224Z,93.30
2022-09-07T07:26:49.805Z,93.00
2022-09-07T07:29:18.765Z,92.90
2022-09-07T07:31:46.807Z,92.60
2022-09-07T07:34:13.387Z,92.90
2022-09-07T07:36:40.359Z,92.70
2022-09-07T07:39:07.076Z,92.90
2022-09-07T07:44:20.601Z,93.20
2022-09-07T07:49:15.898Z,93.20
2022-09-07T07:54:29.174Z,93.40
2022-09-07T07:59:23.164Z,93.30
2022-09-07T08:01:49.747Z,93.40
2022-09-07T08:04:16.598Z,93.50
2022-09-07T08:06:43.827Z,93.20
2022-09-07T08:11:40.115Z,93.30
2022-09-07T08:14:08.433Z,93.40
2022-09-07T08:16:36.147Z,93.10
2022-09-07T08:19:03.088Z,93.00
2022-09-07T08:21:29.786Z,93.10
2022-09-07T08:23:56.320Z,93.30
2022-09-07T08:26:22.878Z,93.40
2022-09-07T08:28:49.436Z,92.90
2022-09-07T08:31:17.224Z,92.10
2022-09-07T08:33:44.336Z,92.30
2022-09-07T08:36:16.576Z,92.30
2022-09-07T08:38:43.886Z,92.30
2022-09-07T08:41:39.171Z,92.50
2022-09-07T08:45:02.657Z,92.30
2022-09-07T08:47:49.734Z,92.00
2022-09-07T08:52:50.495Z,92.50
2022-09-07T08:55:26.740Z,92.20
2022-09-07T08:58:02.939Z,92.40
2022-09-07T09:00:30.866Z,92.40
2022-09-07T09:05:58.808Z,92.30
2022-09-07T09:11:25.858Z,93.60
2022-09-07T09:16:42.988Z,93.60
2022-09-07T09:21:45.807Z,94.20
2022-09-07T09:26:53.074Z,94.50
2022-09-07T09:29:21.408Z,94.90
2022-09-07T09:31:48.163Z,95.00
2022-09-07T09:36:46.100Z,94.60
2022-09-07T09:41:51.973Z,94.70
2022-09-07T09:44:18.553Z,94.80
2022-09-07T09:47:29.483Z,94.60
2022-09-07T09:52:41.749Z,95.40
2022-09-07T09:55:30.555Z,95.20
2022-09-07T10:06:26.305Z,94.70
2022-09-07T10:09:00.415Z,94.30
2022-09-07T10:14:44.013Z,95.00
2022-09-07T10:17:44.599Z,95.10
2022-09-07T10:20:16.744Z,95.20
2022-09-07T10:22:58.418Z,94.50
2022-09-07T10:25:45.297Z,94.50
2022-09-07T10:28:12.725Z,94.50
2022-09-07T10:31:07.298Z,94.70
2022-09-07T10:37:04.828Z,94.30
2022-09-07T10:39:41.785Z,94.50
2022-09-07T10:42:40.044Z,95.50
2022-09-07T10:45:20.417Z,94.80
2022-09-07T10:48:10.941Z,95.50
2022-09-07T10:50:48.326Z,94.30
2022-09-07T10:53:43.407Z,94.00
2022-09-07T10:56:21.732Z,93.50
2022-09-07T10:59:04.365Z,94.30
2022-09-07T11:01:34.020Z,95.10
2022-09-07T11:04:32.433Z,95.00
2022-09-07T11:07:24.605Z,93.80
2022-09-07T11:10:10.467Z,93.90
2022-09-07T11:12:39.407Z,94.20
2022-09-07T11:15:31.292Z,93.30
2022-09-07T11:18:11.907Z,93.60
2022-09-07T11:20:55.062Z,93.30
2022-09-07T11:23:41.320Z,93.50
2022-09-07T11:26:32.499Z,93.20
2022-09-07T11:32:02.186Z,93.20
2022-09-07T11:34:52.147Z,94.00
2022-09-07T11:39:56.679Z,93.90
2022-09-07T11:42:47.002Z,94.10
2022-09-07T11:45:28.243Z,92.50
2022-09-07T11:48:10.847Z,92.10
2022-09-07T11:50:42.817Z,92.10
2022-09-07T11:53:29.763Z,91.90
2022-09-07T11:56:09.668Z,92.20
2022-09-07T11:59:21.495Z,92.10
2022-09-07T12:01:57.144Z,92.10
2022-09-07T12:04:56.487Z,92.00
2022-09-07T12:07:38.356Z,91.80
2022-09-07T12:10:52.586Z,91.90
2022-09-07T12:13:33.735Z,91.30
2022-09-07T12:16:25.962Z,91.20
2022-09-07T12:19:10.283Z,90.90
2022-09-07T12:21:42.441Z,91.10
2022-09-07T12:24:32.543Z,90.80
2022-09-07T12:27:10.459Z,90.90
2022-09-07T12:29:37.606Z,91.40
2022-09-07T12:32:53.406Z,91.00
2022-09-07T12:34:54.330Z,90.80
2022-09-07T12:37:26.673Z,90.70
2022-09-07T12:40:27.172Z,90.50
2022-09-07T12:43:12.640Z,90.60
2022-09-07T12:45:39.154Z,90.20
2022-09-07T12:48:15.394Z,89.90
2022-09-07T12:50:58.768Z,89.40
2022-09-07T12:53:57.883Z,90.00
2022-09-07T12:58:59.250Z,90.00
2022-09-07T13:01:35.080Z,89.30
2022-09-07T13:04:17.046Z,89.30
2022-09-07T13:09:35.344Z,89.50
2022-09-07T13:15:45.326Z,89.60
2022-09-07T13:18:34.725Z,89.20
2022-09-07T13:21:07.769Z,89.10
2022-09-07T13:23:42.963Z,89.30
2022-09-07T13:26:13.136Z,89.30
2022-09-07T13:28:55.961Z,88.80
2022-09-07T13:31:39.022Z,88.50
2022-09-07T13:34:37.550Z,90.00
2022-09-07T13:37:16.520Z,88.20
2022-09-07T13:42:33.661Z,88.20
2022-09-07T13:47:37.389Z,88.30
2022-09-07T13:50:12.300Z,87.80
2022-09-07T13:53:00.576Z,87.90
2022-09-07T13:58:13.579Z,88.30
2022-09-07T14:00:58.718Z,90.50
2022-09-07T14:03:29.580Z,88.10
2022-09-07T14:06:14.875Z,91.10
2022-09-07T14:08:46.182Z,88.50
2022-09-07T14:11:21.752Z,91.00
2022-09-07T14:14:08.177Z,89.30
2022-09-07T14:16:35.698Z,91.00
2022-09-07T14:19:09.079Z,90.40
2022-09-07T14:21:35.648Z,90.40
2022-09-07T14:24:18.571Z,90.40
2022-09-07T14:26:47.766Z,88.90
2022-09-07T14:29:31.041Z,88.20
2022-09-07T14:31:59.098Z,88.10
2022-09-07T14:34:31.027Z,90.20
2022-09-07T14:37:01.661Z,88.00
2022-09-07T14:39:29.756Z,88.20
2022-09-07T14:41:58.915Z,87.90
2022-09-07T14:44:42.713Z,87.90
2022-09-07T14:47:29.669Z,89.20
2022-09-07T14:50:05.660Z,89.50
2022-09-07T14:52:42.490Z,87.00
2022-09-07T14:55:31.003Z,89.20
2022-09-07T14:58:10.023Z,87.10
2022-09-07T15:00:36.978Z,87.40
2022-09-07T15:03:31.991Z,87.50
2022-09-07T15:06:01.406Z,85.80
2022-09-07T15:08:39.978Z,86.20
2022-09-07T15:14:11.059Z,86.90
2022-09-07T15:16:43.882Z,88.00
2022-09-07T15:19:16.564Z,89.70
2022-09-07T15:21:44.822Z,88.40
2022-09-07T15:24:11.705Z,86.40
2022-09-07T15:27:04.952Z,86.10
2022-09-07T15:29:32.263Z,84.70
2022-09-07T15:32:04.386Z,85.30
2022-09-07T15:39:34.199Z,84.90
2022-09-07T15:44:48.706Z,84.40
2022-09-07T15:50:05.573Z,84.50
2022-09-07T15:54:59.667Z,84.80
2022-09-07T16:00:13.158Z,86.20
2022-09-07T16:05:30.395Z,84.80
2022-09-07T16:10:44.429Z,84.40
2022-09-07T16:13:16.226Z,89.40
2022-09-07T16:15:47.717Z,84.80
2022-09-07T16:18:17.311Z,84.20
2022-09-07T16:23:14.352Z,84.50
2022-09-07T16:25:42.168Z,89.20
2022-09-07T16:28:09.373Z,84.10
2022-09-07T16:30:39.299Z,82.50
2022-09-07T16:33:05.991Z,88.00
2022-09-07T16:35:32.844Z,82.60
2022-09-07T16:40:46.542Z,89.10
2022-09-07T16:43:13.055Z,87.60
2022-09-07T16:48:26.085Z,89.30
2022-09-07T16:51:00.367Z,84.20
2022-09-07T16:53:35.768Z,87.30
2022-09-07T16:56:10.870Z,84.50
2022-09-07T16:58:43.110Z,86.80
2022-09-07T17:01:12.439Z,85.30
2022-09-07T17:03:39.836Z,84.20
2022-09-07T17:06:09.284Z,82.20
2022-09-07T17:08:37.079Z,80.80
2022-09-07T17:11:08.929Z,81.10
2022-09-07T17:13:37.215Z,80.90
2022-09-07T17:16:15.378Z,80.10
2022-09-07T17:21:34.795Z,80.40
2022-09-07T17:24:04.203Z,82.80
2022-09-07T17:29:00.642Z,87.20
2022-09-07T17:34:17.807Z,85.10
2022-09-07T17:39:16.231Z,84.30
2022-09-07T17:41:43.690Z,82.70
2022-09-07T17:44:10.450Z,82.20
2022-09-07T17:46:36.976Z,87.10
2022-09-07T17:51:32.766Z,83.20
2022-09-07T17:56:29.580Z,88.30
2022-09-07T18:01:43.467Z,88.70
2022-09-07T18:04:10.927Z,84.70
2022-09-07T18:06:37.612Z,85.00
2022-09-07T18:09:05.243Z,85.50
2022-09-07T18:14:17.262Z,85.30
2022-09-07T18:16:45.734Z,85.90
2022-09-07T18:19:13.097Z,86.70
2022-09-07T18:21:41.744Z,85.50
2022-09-07T18:24:13.636Z,88.60
2022-09-07T18:26:41.057Z,87.30
2022-09-07T18:31:53.670Z,89.00
2022-09-07T18:34:20.677Z,88.80
2022-09-07T18:36:47.417Z,87.90
2022-09-07T18:39:14.034Z,89.80
2022-09-07T18:41:40.898Z,89.90
2022-09-07T18:45:27.277Z,90.50
2022-09-07T18:54:35.921Z,90.40
2022-09-07T19:02:03.024Z,90.70
2022-09-07T19:07:17.861Z,92.30
2022-09-07T19:09:44.411Z,91.50
2022-09-07T19:12:10.932Z,91.00
2022-09-07T19:17:04.489Z,91.10
2022-09-07T19:19:32.798Z,91.10
2022-09-07T19:22:01.455Z,91.20
2022-09-07T19:27:00.122Z,91.30
2022-09-07T19:29:27.439Z,91.10
2022-09-07T19:32:11.594Z,91.30
2022-09-07T19:34:40.837Z,90.80
2022-09-07T19:37:09.248Z,90.30
2022-09-07T19:39:36.028Z,89.70
2022-09-07T19:42:05.044Z,89.50
2022-09-07T19:44:32.348Z,90.40
2022-09-07T19:47:00.245Z,91.10
2022-09-07T19:51:54.885Z,91.50
2022-09-07T19:54:21.533Z,91.60
2022-09-07T19:59:15.129Z,91.60
2022-09-07T20:01:45.982Z,91.90
2022-09-07T20:04:19.581Z,92.20
2022-09-07T20:06:49.531Z,91.90
2022-09-07T20:09:17.219Z,91.90
2022-09-07T20:11:46.797Z,92.10
2022-09-07T20:14:14.936Z,92.30
2022-09-07T20:16:41.874Z,92.40
2022-09-07T20:19:10.617Z,92.60
2022-09-07T20:24:04.830Z,92.40
2022-09-07T20:26:32.253Z,92.50
2022-09-07T20:29:16.705Z,92.90
2022-09-07T20:31:46.631Z,92.90
2022-09-07T20:34:13.387Z,92.70
2022-09-07T20:36:40.029Z,92.90
2022-09-07T20:41:34.529Z,92.80
2022-09-07T20:44:03.048Z,92.90
2022-09-07T20:46:31.154Z,92.90
2022-09-07T20:48:58.381Z,93.20
2022-09-07T20:53:52.405Z,93.30
2022-09-07T20:56:24.063Z,93.20
2022-09-07T20:58:59.832Z,93.30
2022-09-07T21:01:27.360Z,93.30
2022-09-07T21:03:56.410Z,93.40
2022-09-07T21:06:24.268Z,93.70
2022-09-07T21:08:51.036Z,93.70
2022-09-07T21:11:24.990Z,93.30
2022-09-07T21:14:06.742Z,93.40
2022-09-07T21:16:34.576Z,93.40
2022-09-07T21:19:02.600Z,93.10
2022-09-07T21:21:36.626Z,93.20
2022-09-07T21:24:05.732Z,93.40
2022-09-07T21:26:32.861Z,93.40
2022-09-07T21:29:04.863Z,93.40
2022-09-07T21:31:33.498Z,93.30
2022-09-07T21:34:01.752Z,93.20
2022-09-07T21:36:29.141Z,93.10
2022-09-07T21:41:24.181Z,93.30
2022-09-07T21:43:58.520Z,93.50
2022-09-07T21:46:26.339Z,93.40
2022-09-07T21:48:54.261Z,93.70
2022-09-07T21:51:20.872Z,93.80
2022-09-07T21:53:52.068Z,93.80
2022-09-07T21:56:19.085Z,94.00
2022-09-07T21:58:45.743Z,93.50
2022-09-07T22:01:49.886Z,93.30
2022-09-07T22:04:16.445Z,93.90
2022-09-07T22:06:43.787Z,93.80
2022-09-07T22:09:10.284Z,93.00
2022-09-07T22:14:05.369Z,91.00
2022-09-07T22:16:34.136Z,91.20
2022-09-07T22:19:00.889Z,90.60
2022-09-07T22:21:29.400Z,90.40
2022-09-07T22:23:59.255Z,90.20
2022-09-07T22:26:28.440Z,90.10
2022-09-07T22:28:55.538Z,90.10
2022-09-07T22:31:25.974Z,90.00
2022-09-07T22:33:54.061Z,89.80
2022-09-07T22:36:21.731Z,89.70
2022-09-07T22:38:50.841Z,89.70
2022-09-07T22:41:19.883Z,89.30
2022-09-07T22:43:47.341Z,89.20
2022-09-07T22:46:14.255Z,89.00
2022-09-07T22:48:42.847Z,88.90
2022-09-07T22:51:10.272Z,88.70
2022-09-07T22:53:39.307Z,88.60
2022-09-07T22:56:18.485Z,89.10
2022-09-07T22:58:53.591Z,89.10
2022-09-07T23:01:20.849Z,88.50
2022-09-07T23:03:47.837Z,89.00
2022-09-07T23:06:38.606Z,88.40
2022-09-07T23:09:11.630Z,88.80
2022-09-07T23:11:39.077Z,88.40
2022-09-07T23:14:11.585Z,88.20
2022-09-07T23:16:38.797Z,88.10
2022-09-07T23:19:05.313Z,88.10
2022-09-07T23:21:31.814Z,88.00
2022-09-07T23:23:59.709Z,88.00
2022-09-07T23:26:29.452Z,88.00
2022-09-07T23:28:58.168Z,88.50
2022-09-07T23:31:25.612Z,87.80
2022-09-07T23:33:52.359Z,88.40
2022-09-07T23:36:19.403Z,88.40
2022-09-07T23:38:46.299Z,87.80
2022-09-07T23:41:16.261Z,87.70
2022-09-07T23:43:43.932Z,88.30
2022-09-07T23:46:11.465Z,87.70
2022-09-07T23:48:38.202Z,87.70
2022-09-07T23:51:05.661Z,87.50
2022-09-07T23:53:32.444Z,88.10
2022-09-07T23:55:58.963Z,87.50
2022-09-07T23:58:25.621Z,88.00
